sensor_id;sensor_type;location;lat;lon;timestamp;P1;durP1;ratioP1;P2;durP2;ratioP2
56102;SDS011;41970;48.774;9.280;2024-01-30T00:01:56;7.30;;;6.53;;
56102;SDS011;41970;48.774;9.280;2024-01-30T00:04:21;8.20;;;7.20;;
56102;SDS011;41970;48.774;9.280;2024-01-30T00:06:47;10.00;;;6.97;;
56102;SDS011;41970;48.774;9.280;2024-01-30T00:09:13;8.13;;;6.13;;
56102;SDS011;41970;48.774;9.280;2024-01-30T00:11:39;7.43;;;6.70;;
56102;SDS011;41970;48.774;9.280;2024-01-30T00:14:05;8.90;;;6.72;;
56102;SDS011;41970;48.774;9.280;2024-01-30T00:16:31;6.90;;;6.20;;
56102;SDS011;41970;48.774;9.280;2024-01-30T00:18:57;8.73;;;7.10;;
56102;SDS011;41970;48.774;9.280;2024-01-30T00:21:23;10.80;;;6.70;;
56102;SDS011;41970;48.774;9.280;2024-01-30T00:23:49;6.87;;;6.17;;
56102;SDS011;41970;48.774;9.280;2024-01-30T00:26:15;7.70;;;6.17;;
56102;SDS011;41970;48.774;9.280;2024-01-30T00:28:41;7.60;;;6.90;;
56102;SDS011;41970;48.774;9.280;2024-01-30T00:31:07;6.65;;;5.90;;
56102;SDS011;41970;48.774;9.280;2024-01-30T00:33:37;7.95;;;6.43;;
56102;SDS011;41970;48.774;9.280;2024-01-30T00:36:07;6.95;;;6.25;;
56102;SDS011;41970;48.774;9.280;2024-01-30T00:38:33;12.40;;;5.95;;
56102;SDS011;41970;48.774;9.280;2024-01-30T00:40:59;6.50;;;5.90;;
56102;SDS011;41970;48.774;9.280;2024-01-30T00:43:25;7.60;;;6.20;;
56102;SDS011;41970;48.774;9.280;2024-01-30T00:45:51;7.80;;;5.85;;
56102;SDS011;41970;48.774;9.280;2024-01-30T00:48:20;6.82;;;5.80;;
56102;SDS011;41970;48.774;9.280;2024-01-30T00:50:46;12.55;;;6.60;;
56102;SDS011;41970;48.774;9.280;2024-01-30T00:53:12;7.97;;;6.73;;
56102;SDS011;41970;48.774;9.280;2024-01-30T00:55:38;8.68;;;6.35;;
56102;SDS011;41970;48.774;9.280;2024-01-30T00:58:04;8.57;;;6.23;;
56102;SDS011;41970;48.774;9.280;2024-01-30T01:00:30;6.97;;;6.30;;
56102;SDS011;41970;48.774;9.280;2024-01-30T01:02:57;8.00;;;7.00;;
56102;SDS011;41970;48.774;9.280;2024-01-30T01:05:23;8.10;;;6.90;;
56102;SDS011;41970;48.774;9.280;2024-01-30T01:07:49;8.35;;;6.82;;
56102;SDS011;41970;48.774;9.280;2024-01-30T01:10:16;7.00;;;5.73;;
56102;SDS011;41970;48.774;9.280;2024-01-30T01:12:43;7.43;;;6.72;;
56102;SDS011;41970;48.774;9.280;2024-01-30T01:15:09;8.45;;;7.45;;
56102;SDS011;41970;48.774;9.280;2024-01-30T01:17:35;8.35;;;6.00;;
56102;SDS011;41970;48.774;9.280;2024-01-30T01:20:02;9.82;;;6.50;;
56102;SDS011;41970;48.774;9.280;2024-01-30T01:22:28;7.18;;;6.45;;
56102;SDS011;41970;48.774;9.280;2024-01-30T01:24:54;8.60;;;7.05;;
56102;SDS011;41970;48.774;9.280;2024-01-30T01:27:20;8.77;;;6.90;;
56102;SDS011;41970;48.774;9.280;2024-01-30T01:29:46;10.03;;;7.47;;
56102;SDS011;41970;48.774;9.280;2024-01-30T01:32:12;8.67;;;6.60;;
56102;SDS011;41970;48.774;9.280;2024-01-30T01:34:38;7.40;;;6.70;;
56102;SDS011;41970;48.774;9.280;2024-01-30T01:37:03;7.40;;;6.40;;
56102;SDS011;41970;48.774;9.280;2024-01-30T01:39:29;7.43;;;6.60;;
56102;SDS011;41970;48.774;9.280;2024-01-30T01:41:55;8.00;;;7.20;;
56102;SDS011;41970;48.774;9.280;2024-01-30T01:44:21;8.33;;;7.53;;
56102;SDS011;41970;48.774;9.280;2024-01-30T01:46:47;9.83;;;7.70;;
56102;SDS011;41970;48.774;9.280;2024-01-30T01:49:13;9.45;;;7.57;;
56102;SDS011;41970;48.774;9.280;2024-01-30T01:51:39;9.25;;;6.95;;
56102;SDS011;41970;48.774;9.280;2024-01-30T01:54:07;12.90;;;8.15;;
56102;SDS011;41970;48.774;9.280;2024-01-30T01:56:34;8.95;;;7.50;;
56102;SDS011;41970;48.774;9.280;2024-01-30T01:59:04;8.07;;;6.28;;
56102;SDS011;41970;48.774;9.280;2024-01-30T02:01:32;8.27;;;6.28;;
56102;SDS011;41970;48.774;9.280;2024-01-30T02:03:59;7.90;;;6.60;;
56102;SDS011;41970;48.774;9.280;2024-01-30T02:06:26;8.82;;;6.35;;
56102;SDS011;41970;48.774;9.280;2024-01-30T02:08:52;8.10;;;7.30;;
56102;SDS011;41970;48.774;9.280;2024-01-30T02:11:19;8.60;;;7.45;;
56102;SDS011;41970;48.774;9.280;2024-01-30T02:13:47;7.95;;;6.88;;
56102;SDS011;41970;48.774;9.280;2024-01-30T02:16:14;8.55;;;7.22;;
56102;SDS011;41970;48.774;9.280;2024-01-30T02:18:40;8.23;;;7.37;;
56102;SDS011;41970;48.774;9.280;2024-01-30T02:21:12;9.05;;;6.93;;
56102;SDS011;41970;48.774;9.280;2024-01-30T02:23:39;8.82;;;7.45;;
56102;SDS011;41970;48.774;9.280;2024-01-30T02:26:06;8.82;;;7.05;;
56102;SDS011;41970;48.774;9.280;2024-01-30T02:28:32;7.30;;;6.60;;
56102;SDS011;41970;48.774;9.280;2024-01-30T02:30:57;7.60;;;6.80;;
56102;SDS011;41970;48.774;9.280;2024-01-30T02:33:23;8.70;;;7.60;;
56102;SDS011;41970;48.774;9.280;2024-01-30T02:35:49;8.57;;;7.77;;
56102;SDS011;41970;48.774;9.280;2024-01-30T02:38:15;8.97;;;7.30;;
56102;SDS011;41970;48.774;9.280;2024-01-30T02:40:41;9.80;;;7.43;;
56102;SDS011;41970;48.774;9.280;2024-01-30T02:43:07;9.07;;;7.77;;
56102;SDS011;41970;48.774;9.280;2024-01-30T02:45:33;9.63;;;7.53;;
56102;SDS011;41970;48.774;9.280;2024-01-30T02:47:59;9.77;;;8.30;;
56102;SDS011;41970;48.774;9.280;2024-01-30T02:50:25;9.43;;;8.43;;
56102;SDS011;41970;48.774;9.280;2024-01-30T02:52:51;7.93;;;7.17;;
56102;SDS011;41970;48.774;9.280;2024-01-30T02:55:16;12.83;;;7.77;;
56102;SDS011;41970;48.774;9.280;2024-01-30T02:57:45;8.68;;;7.18;;
56102;SDS011;41970;48.774;9.280;2024-01-30T03:00:11;9.07;;;7.27;;
56102;SDS011;41970;48.774;9.280;2024-01-30T03:02:37;9.38;;;7.70;;
56102;SDS011;41970;48.774;9.280;2024-01-30T03:05:05;9.13;;;8.23;;
56102;SDS011;41970;48.774;9.280;2024-01-30T03:07:31;9.15;;;7.30;;
56102;SDS011;41970;48.774;9.280;2024-01-30T03:09:57;8.00;;;6.80;;
56102;SDS011;41970;48.774;9.280;2024-01-30T03:12:22;8.90;;;7.10;;
56102;SDS011;41970;48.774;9.280;2024-01-30T03:14:48;9.37;;;7.60;;
56102;SDS011;41970;48.774;9.280;2024-01-30T03:17:14;11.50;;;8.97;;
56102;SDS011;41970;48.774;9.280;2024-01-30T03:19:40;9.23;;;7.40;;
56102;SDS011;41970;48.774;9.280;2024-01-30T03:22:06;9.27;;;7.23;;
56102;SDS011;41970;48.774;9.280;2024-01-30T03:24:32;8.80;;;7.57;;
56102;SDS011;41970;48.774;9.280;2024-01-30T03:26:58;10.07;;;7.90;;
56102;SDS011;41970;48.774;9.280;2024-01-30T03:29:24;9.97;;;7.17;;
56102;SDS011;41970;48.774;9.280;2024-01-30T03:31:50;10.53;;;7.60;;
56102;SDS011;41970;48.774;9.280;2024-01-30T03:34:16;8.65;;;7.30;;
56102;SDS011;41970;48.774;9.280;2024-01-30T03:36:41;11.80;;;8.03;;
56102;SDS011;41970;48.774;9.280;2024-01-30T03:39:07;9.53;;;7.90;;
56102;SDS011;41970;48.774;9.280;2024-01-30T03:41:33;8.70;;;7.73;;
56102;SDS011;41970;48.774;9.280;2024-01-30T03:43:59;8.73;;;7.43;;
56102;SDS011;41970;48.774;9.280;2024-01-30T03:46:25;8.50;;;7.30;;
56102;SDS011;41970;48.774;9.280;2024-01-30T03:48:51;8.70;;;7.80;;
56102;SDS011;41970;48.774;9.280;2024-01-30T03:51:16;8.93;;;8.10;;
56102;SDS011;41970;48.774;9.280;2024-01-30T03:53:43;9.37;;;8.30;;
56102;SDS011;41970;48.774;9.280;2024-01-30T03:56:09;13.57;;;8.77;;
56102;SDS011;41970;48.774;9.280;2024-01-30T03:58:35;12.40;;;9.25;;
56102;SDS011;41970;48.774;9.280;2024-01-30T04:01:01;8.80;;;7.40;;
56102;SDS011;41970;48.774;9.280;2024-01-30T04:03:27;8.57;;;7.78;;
56102;SDS011;41970;48.774;9.280;2024-01-30T04:05:53;10.73;;;7.77;;
56102;SDS011;41970;48.774;9.280;2024-01-30T04:08:19;7.40;;;6.65;;
56102;SDS011;41970;48.774;9.280;2024-01-30T04:10:45;8.93;;;7.95;;
56102;SDS011;41970;48.774;9.280;2024-01-30T04:13:12;11.82;;;7.95;;
56102;SDS011;41970;48.774;9.280;2024-01-30T04:15:38;9.35;;;8.05;;
56102;SDS011;41970;48.774;9.280;2024-01-30T04:18:04;8.98;;;7.20;;
56102;SDS011;41970;48.774;9.280;2024-01-30T04:20:31;9.07;;;7.20;;
56102;SDS011;41970;48.774;9.280;2024-01-30T04:22:56;10.85;;;7.88;;
56102;SDS011;41970;48.774;9.280;2024-01-30T04:25:22;9.40;;;8.10;;
56102;SDS011;41970;48.774;9.280;2024-01-30T04:27:48;11.40;;;7.80;;
56102;SDS011;41970;48.774;9.280;2024-01-30T04:30:14;9.90;;;8.43;;
56102;SDS011;41970;48.774;9.280;2024-01-30T04:32:40;9.68;;;8.57;;
56102;SDS011;41970;48.774;9.280;2024-01-30T04:35:06;9.02;;;7.57;;
56102;SDS011;41970;48.774;9.280;2024-01-30T04:37:32;9.27;;;8.30;;
56102;SDS011;41970;48.774;9.280;2024-01-30T04:39:58;13.07;;;8.40;;
56102;SDS011;41970;48.774;9.280;2024-01-30T04:42:24;11.00;;;7.63;;
56102;SDS011;41970;48.774;9.280;2024-01-30T04:44:50;9.47;;;8.20;;
56102;SDS011;41970;48.774;9.280;2024-01-30T04:47:16;8.27;;;7.13;;
56102;SDS011;41970;48.774;9.280;2024-01-30T04:49:42;9.68;;;7.45;;
56102;SDS011;41970;48.774;9.280;2024-01-30T04:52:08;8.53;;;7.67;;
56102;SDS011;41970;48.774;9.280;2024-01-30T04:54:34;11.57;;;8.65;;
56102;SDS011;41970;48.774;9.280;2024-01-30T04:57:01;9.30;;;7.80;;
56102;SDS011;41970;48.774;9.280;2024-01-30T04:59:27;8.52;;;7.40;;
56102;SDS011;41970;48.774;9.280;2024-01-30T05:01:54;10.48;;;7.45;;
56102;SDS011;41970;48.774;9.280;2024-01-30T05:04:20;8.32;;;7.30;;
56102;SDS011;41970;48.774;9.280;2024-01-30T05:06:47;7.72;;;6.93;;
56102;SDS011;41970;48.774;9.280;2024-01-30T05:09:13;8.30;;;7.43;;
56102;SDS011;41970;48.774;9.280;2024-01-30T05:11:39;8.13;;;7.33;;
56102;SDS011;41970;48.774;9.280;2024-01-30T05:14:05;8.55;;;6.55;;
56102;SDS011;41970;48.774;9.280;2024-01-30T05:16:32;10.75;;;7.30;;
56102;SDS011;41970;48.774;9.280;2024-01-30T05:18:58;8.68;;;7.57;;
56102;SDS011;41970;48.774;9.280;2024-01-30T05:21:24;8.10;;;7.15;;
56102;SDS011;41970;48.774;9.280;2024-01-30T05:23:50;11.53;;;7.33;;
56102;SDS011;41970;48.774;9.280;2024-01-30T05:26:16;9.07;;;8.20;;
56102;SDS011;41970;48.774;9.280;2024-01-30T05:28:42;10.00;;;8.00;;
56102;SDS011;41970;48.774;9.280;2024-01-30T05:31:09;10.45;;;8.02;;
56102;SDS011;41970;48.774;9.280;2024-01-30T05:33:35;7.93;;;7.15;;
56102;SDS011;41970;48.774;9.280;2024-01-30T05:36:01;8.53;;;7.17;;
56102;SDS011;41970;48.774;9.280;2024-01-30T05:38:27;8.10;;;7.30;;
56102;SDS011;41970;48.774;9.280;2024-01-30T05:40:53;7.40;;;6.70;;
56102;SDS011;41970;48.774;9.280;2024-01-30T05:43:19;8.43;;;6.93;;
56102;SDS011;41970;48.774;9.280;2024-01-30T05:45:45;12.03;;;8.40;;
56102;SDS011;41970;48.774;9.280;2024-01-30T05:48:11;8.80;;;7.60;;
56102;SDS011;41970;48.774;9.280;2024-01-30T05:50:36;10.97;;;7.37;;
56102;SDS011;41970;48.774;9.280;2024-01-30T05:53:02;10.70;;;7.83;;
56102;SDS011;41970;48.774;9.280;2024-01-30T05:55:28;8.55;;;7.65;;
56102;SDS011;41970;48.774;9.280;2024-01-30T05:57:54;9.00;;;7.80;;
56102;SDS011;41970;48.774;9.280;2024-01-30T06:00:20;9.25;;;7.85;;
56102;SDS011;41970;48.774;9.280;2024-01-30T06:02:46;9.53;;;8.37;;
56102;SDS011;41970;48.774;9.280;2024-01-30T06:05:12;9.30;;;7.73;;
56102;SDS011;41970;48.774;9.280;2024-01-30T06:07:38;9.80;;;8.80;;
56102;SDS011;41970;48.774;9.280;2024-01-30T06:10:04;10.90;;;8.67;;
56102;SDS011;41970;48.774;9.280;2024-01-30T06:12:30;10.70;;;8.65;;
56102;SDS011;41970;48.774;9.280;2024-01-30T06:14:56;9.30;;;8.40;;
56102;SDS011;41970;48.774;9.280;2024-01-30T06:17:22;12.50;;;9.00;;
56102;SDS011;41970;48.774;9.280;2024-01-30T06:19:48;13.02;;;9.35;;
56102;SDS011;41970;48.774;9.280;2024-01-30T06:22:15;12.10;;;10.40;;
56102;SDS011;41970;48.774;9.280;2024-01-30T06:24:41;13.30;;;11.50;;
56102;SDS011;41970;48.774;9.280;2024-01-30T06:27:10;12.75;;;10.18;;
56102;SDS011;41970;48.774;9.280;2024-01-30T06:29:36;11.60;;;8.85;;
56102;SDS011;41970;48.774;9.280;2024-01-30T06:32:01;10.83;;;9.73;;
56102;SDS011;41970;48.774;9.280;2024-01-30T06:34:27;11.97;;;9.20;;
56102;SDS011;41970;48.774;9.280;2024-01-30T06:36:53;11.93;;;8.87;;
56102;SDS011;41970;48.774;9.280;2024-01-30T06:39:19;11.10;;;9.10;;
56102;SDS011;41970;48.774;9.280;2024-01-30T06:41:45;16.10;;;9.50;;
56102;SDS011;41970;48.774;9.280;2024-01-30T06:44:11;12.25;;;10.25;;
56102;SDS011;41970;48.774;9.280;2024-01-30T06:46:38;10.95;;;9.88;;
56102;SDS011;41970;48.774;9.280;2024-01-30T06:49:04;14.30;;;9.55;;
56102;SDS011;41970;48.774;9.280;2024-01-30T06:51:30;14.63;;;10.63;;
56102;SDS011;41970;48.774;9.280;2024-01-30T06:53:56;11.70;;;8.70;;
56102;SDS011;41970;48.774;9.280;2024-01-30T06:56:22;9.93;;;8.60;;
56102;SDS011;41970;48.774;9.280;2024-01-30T06:58:48;10.17;;;8.73;;
56102;SDS011;41970;48.774;9.280;2024-01-30T07:01:14;14.15;;;9.98;;
56102;SDS011;41970;48.774;9.280;2024-01-30T07:03:41;10.48;;;9.35;;
56102;SDS011;41970;48.774;9.280;2024-01-30T07:06:07;12.07;;;9.60;;
56102;SDS011;41970;48.774;9.280;2024-01-30T07:08:33;11.60;;;9.40;;
56102;SDS011;41970;48.774;9.280;2024-01-30T07:10:59;14.30;;;9.97;;
56102;SDS011;41970;48.774;9.280;2024-01-30T07:13:25;9.10;;;8.20;;
56102;SDS011;41970;48.774;9.280;2024-01-30T07:15:51;14.07;;;10.60;;
56102;SDS011;41970;48.774;9.280;2024-01-30T07:18:16;11.73;;;8.87;;
56102;SDS011;41970;48.774;9.280;2024-01-30T07:20:42;17.40;;;10.23;;
56102;SDS011;41970;48.774;9.280;2024-01-30T07:23:14;11.05;;;9.93;;
56102;SDS011;41970;48.774;9.280;2024-01-30T07:25:42;18.20;;;10.68;;
56102;SDS011;41970;48.774;9.280;2024-01-30T07:28:13;14.48;;;9.70;;
56102;SDS011;41970;48.774;9.280;2024-01-30T07:30:42;11.82;;;9.30;;
56102;SDS011;41970;48.774;9.280;2024-01-30T07:33:08;12.10;;;9.57;;
56102;SDS011;41970;48.774;9.280;2024-01-30T07:35:34;10.63;;;8.30;;
56102;SDS011;41970;48.774;9.280;2024-01-30T07:38:01;14.25;;;10.48;;
56102;SDS011;41970;48.774;9.280;2024-01-30T07:40:27;11.90;;;10.80;;
56102;SDS011;41970;48.774;9.280;2024-01-30T07:42:53;12.53;;;9.87;;
56102;SDS011;41970;48.774;9.280;2024-01-30T07:45:20;12.02;;;9.25;;
56102;SDS011;41970;48.774;9.280;2024-01-30T07:47:50;15.75;;;10.00;;
56102;SDS011;41970;48.774;9.280;2024-01-30T07:50:17;12.02;;;9.65;;
56102;SDS011;41970;48.774;9.280;2024-01-30T07:52:43;12.02;;;10.60;;
56102;SDS011;41970;48.774;9.280;2024-01-30T07:55:09;11.90;;;10.30;;
56102;SDS011;41970;48.774;9.280;2024-01-30T07:57:35;13.40;;;10.53;;
56102;SDS011;41970;48.774;9.280;2024-01-30T08:00:04;14.10;;;10.85;;
56102;SDS011;41970;48.774;9.280;2024-01-30T08:02:32;12.65;;;9.93;;
56102;SDS011;41970;48.774;9.280;2024-01-30T08:04:58;11.57;;;9.80;;
56102;SDS011;41970;48.774;9.280;2024-01-30T08:07:24;14.53;;;11.83;;
56102;SDS011;41970;48.774;9.280;2024-01-30T08:09:49;13.60;;;11.60;;
56102;SDS011;41970;48.774;9.280;2024-01-30T08:12:15;14.90;;;11.03;;
56102;SDS011;41970;48.774;9.280;2024-01-30T08:14:42;17.08;;;11.50;;
56102;SDS011;41970;48.774;9.280;2024-01-30T08:17:08;15.03;;;11.53;;
56102;SDS011;41970;48.774;9.280;2024-01-30T08:19:33;14.50;;;10.83;;
56102;SDS011;41970;48.774;9.280;2024-01-30T08:21:59;16.07;;;11.33;;
56102;SDS011;41970;48.774;9.280;2024-01-30T08:24:25;18.53;;;13.53;;
56102;SDS011;41970;48.774;9.280;2024-01-30T08:26:51;13.57;;;11.97;;
56102;SDS011;41970;48.774;9.280;2024-01-30T08:29:17;14.70;;;12.10;;
56102;SDS011;41970;48.774;9.280;2024-01-30T08:31:42;17.47;;;11.50;;
56102;SDS011;41970;48.774;9.280;2024-01-30T08:34:09;14.75;;;10.93;;
56102;SDS011;41970;48.774;9.280;2024-01-30T08:36:35;15.63;;;12.10;;
56102;SDS011;41970;48.774;9.280;2024-01-30T08:39:01;13.85;;;11.80;;
56102;SDS011;41970;48.774;9.280;2024-01-30T08:41:28;13.23;;;11.82;;
56102;SDS011;41970;48.774;9.280;2024-01-30T08:43:53;11.70;;;10.60;;
56102;SDS011;41970;48.774;9.280;2024-01-30T08:46:19;12.90;;;11.50;;
56102;SDS011;41970;48.774;9.280;2024-01-30T08:48:46;11.17;;;10.00;;
56102;SDS011;41970;48.774;9.280;2024-01-30T08:51:12;15.20;;;11.30;;
56102;SDS011;41970;48.774;9.280;2024-01-30T08:53:40;11.80;;;10.50;;
56102;SDS011;41970;48.774;9.280;2024-01-30T08:56:06;11.83;;;9.97;;
56102;SDS011;41970;48.774;9.280;2024-01-30T08:58:32;11.57;;;10.37;;
56102;SDS011;41970;48.774;9.280;2024-01-30T09:00:58;13.33;;;10.17;;
56102;SDS011;41970;48.774;9.280;2024-01-30T09:03:24;12.80;;;10.90;;
56102;SDS011;41970;48.774;9.280;2024-01-30T09:05:50;11.70;;;10.50;;
56102;SDS011;41970;48.774;9.280;2024-01-30T09:08:16;11.83;;;9.90;;
56102;SDS011;41970;48.774;9.280;2024-01-30T09:10:42;12.47;;;9.93;;
56102;SDS011;41970;48.774;9.280;2024-01-30T09:13:08;11.57;;;9.30;;
56102;SDS011;41970;48.774;9.280;2024-01-30T09:15:33;10.70;;;9.63;;
56102;SDS011;41970;48.774;9.280;2024-01-30T09:18:00;12.00;;;9.90;;
56102;SDS011;41970;48.774;9.280;2024-01-30T09:20:26;14.33;;;10.23;;
56102;SDS011;41970;48.774;9.280;2024-01-30T09:22:52;10.57;;;9.47;;
56102;SDS011;41970;48.774;9.280;2024-01-30T09:25:18;14.47;;;11.20;;
56102;SDS011;41970;48.774;9.280;2024-01-30T09:27:44;9.57;;;8.33;;
56102;SDS011;41970;48.774;9.280;2024-01-30T09:30:10;14.50;;;11.33;;
56102;SDS011;41970;48.774;9.280;2024-01-30T09:32:36;12.77;;;10.50;;
56102;SDS011;41970;48.774;9.280;2024-01-30T09:35:02;11.47;;;9.93;;
56102;SDS011;41970;48.774;9.280;2024-01-30T09:37:28;10.60;;;9.00;;
56102;SDS011;41970;48.774;9.280;2024-01-30T09:39:53;11.17;;;9.80;;
56102;SDS011;41970;48.774;9.280;2024-01-30T09:44:48;13.57;;;10.33;;
56102;SDS011;41970;48.774;9.280;2024-01-30T09:47:19;10.77;;;9.43;;
56102;SDS011;41970;48.774;9.280;2024-01-30T09:49:45;10.30;;;7.83;;
56102;SDS011;41970;48.774;9.280;2024-01-30T09:52:12;9.07;;;7.90;;
56102;SDS011;41970;48.774;9.280;2024-01-30T09:54:38;11.10;;;8.13;;
56102;SDS011;41970;48.774;9.280;2024-01-30T09:57:06;11.90;;;9.50;;
56102;SDS011;41970;48.774;9.280;2024-01-30T09:59:32;10.03;;;9.00;;
56102;SDS011;41970;48.774;9.280;2024-01-30T10:01:58;9.57;;;8.47;;
56102;SDS011;41970;48.774;9.280;2024-01-30T10:04:25;10.17;;;9.23;;
56102;SDS011;41970;48.774;9.280;2024-01-30T10:06:50;9.57;;;8.53;;
56102;SDS011;41970;48.774;9.280;2024-01-30T10:09:16;13.23;;;8.73;;
56102;SDS011;41970;48.774;9.280;2024-01-30T10:11:42;9.63;;;8.17;;
56102;SDS011;41970;48.774;9.280;2024-01-30T10:14:08;11.03;;;9.40;;
56102;SDS011;41970;48.774;9.280;2024-01-30T10:16:34;10.77;;;8.30;;
56102;SDS011;41970;48.774;9.280;2024-01-30T10:19:00;12.70;;;8.90;;
56102;SDS011;41970;48.774;9.280;2024-01-30T10:21:27;12.20;;;9.00;;
56102;SDS011;41970;48.774;9.280;2024-01-30T10:23:55;11.50;;;9.77;;
56102;SDS011;41970;48.774;9.280;2024-01-30T10:26:21;11.53;;;9.83;;
56102;SDS011;41970;48.774;9.280;2024-01-30T10:28:47;8.67;;;7.77;;
56102;SDS011;41970;48.774;9.280;2024-01-30T10:31:17;9.50;;;7.93;;
56102;SDS011;41970;48.774;9.280;2024-01-30T10:33:44;10.07;;;8.73;;
56102;SDS011;41970;48.774;9.280;2024-01-30T10:36:10;9.30;;;8.23;;
56102;SDS011;41970;48.774;9.280;2024-01-30T10:38:40;7.50;;;6.80;;
56102;SDS011;41970;48.774;9.280;2024-01-30T10:41:07;13.20;;;8.30;;
56102;SDS011;41970;48.774;9.280;2024-01-30T10:43:40;8.20;;;7.40;;
56102;SDS011;41970;48.774;9.280;2024-01-30T10:46:26;11.17;;;8.80;;
56102;SDS011;41970;48.774;9.280;2024-01-30T10:48:58;10.20;;;8.30;;
56102;SDS011;41970;48.774;9.280;2024-01-30T10:51:26;12.43;;;10.90;;
56102;SDS011;41970;48.774;9.280;2024-01-30T10:53:52;13.03;;;11.10;;
56102;SDS011;41970;48.774;9.280;2024-01-30T10:56:21;10.40;;;9.13;;
56102;SDS011;41970;48.774;9.280;2024-01-30T10:58:49;9.87;;;8.97;;
56102;SDS011;41970;48.774;9.280;2024-01-30T11:01:17;12.53;;;9.33;;
56102;SDS011;41970;48.774;9.280;2024-01-30T11:03:44;10.57;;;9.13;;
56102;SDS011;41970;48.774;9.280;2024-01-30T11:06:11;13.97;;;10.33;;
56102;SDS011;41970;48.774;9.280;2024-01-30T11:08:43;13.20;;;10.67;;
56102;SDS011;41970;48.774;9.280;2024-01-30T11:11:10;11.27;;;9.93;;
56102;SDS011;41970;48.774;9.280;2024-01-30T11:13:36;9.97;;;8.97;;
56102;SDS011;41970;48.774;9.280;2024-01-30T11:16:02;11.10;;;10.00;;
56102;SDS011;41970;48.774;9.280;2024-01-30T11:18:31;12.17;;;10.53;;
56102;SDS011;41970;48.774;9.280;2024-01-30T11:20:59;10.40;;;9.27;;
56102;SDS011;41970;48.774;9.280;2024-01-30T11:23:27;11.87;;;8.90;;
56102;SDS011;41970;48.774;9.280;2024-01-30T11:25:53;11.40;;;9.40;;
56102;SDS011;41970;48.774;9.280;2024-01-30T11:28:22;12.67;;;9.77;;
56102;SDS011;41970;48.774;9.280;2024-01-30T11:30:48;8.57;;;7.60;;
56102;SDS011;41970;48.774;9.280;2024-01-30T11:33:26;7.40;;;6.60;;
56102;SDS011;41970;48.774;9.280;2024-01-30T11:35:56;8.90;;;6.77;;
56102;SDS011;41970;48.774;9.280;2024-01-30T11:38:25;13.40;;;7.93;;
56102;SDS011;41970;48.774;9.280;2024-01-30T11:40:54;10.40;;;8.40;;
56102;SDS011;41970;48.774;9.280;2024-01-30T11:43:21;9.67;;;7.97;;
56102;SDS011;41970;48.774;9.280;2024-01-30T11:45:47;10.17;;;8.10;;
56102;SDS011;41970;48.774;9.280;2024-01-30T11:48:13;8.93;;;7.50;;
56102;SDS011;41970;48.774;9.280;2024-01-30T11:50:39;13.27;;;8.43;;
56102;SDS011;41970;48.774;9.280;2024-01-30T11:53:06;9.47;;;7.70;;
56102;SDS011;41970;48.774;9.280;2024-01-30T11:55:32;12.97;;;8.53;;
56102;SDS011;41970;48.774;9.280;2024-01-30T11:58:01;11.63;;;8.70;;
56102;SDS011;41970;48.774;9.280;2024-01-30T12:00:27;14.20;;;9.50;;
56102;SDS011;41970;48.774;9.280;2024-01-30T12:02:55;7.87;;;6.30;;
56102;SDS011;41970;48.774;9.280;2024-01-30T12:05:26;10.53;;;7.57;;
56102;SDS011;41970;48.774;9.280;2024-01-30T12:07:53;9.27;;;5.93;;
56102;SDS011;41970;48.774;9.280;2024-01-30T12:10:19;7.80;;;6.67;;
56102;SDS011;41970;48.774;9.280;2024-01-30T12:12:46;10.33;;;8.03;;
56102;SDS011;41970;48.774;9.280;2024-01-30T12:15:14;10.00;;;8.90;;
56102;SDS011;41970;48.774;9.280;2024-01-30T12:17:40;11.53;;;8.30;;
56102;SDS011;41970;48.774;9.280;2024-01-30T12:20:10;11.67;;;7.53;;
56102;SDS011;41970;48.774;9.280;2024-01-30T12:22:44;8.57;;;6.53;;
56102;SDS011;41970;48.774;9.280;2024-01-30T12:25:11;11.93;;;6.17;;
56102;SDS011;41970;48.774;9.280;2024-01-30T12:27:38;8.13;;;6.10;;
56102;SDS011;41970;48.774;9.280;2024-01-30T12:30:05;6.73;;;6.03;;
56102;SDS011;41970;48.774;9.280;2024-01-30T12:32:34;7.03;;;5.63;;
56102;SDS011;41970;48.774;9.280;2024-01-30T12:35:01;7.77;;;6.20;;
56102;SDS011;41970;48.774;9.280;2024-01-30T12:37:27;8.73;;;6.40;;
56102;SDS011;41970;48.774;9.280;2024-01-30T12:39:54;7.40;;;5.70;;
56102;SDS011;41970;48.774;9.280;2024-01-30T12:42:20;10.73;;;6.60;;
56102;SDS011;41970;48.774;9.280;2024-01-30T12:44:47;7.77;;;6.00;;
56102;SDS011;41970;48.774;9.280;2024-01-30T12:47:14;8.87;;;6.20;;
56102;SDS011;41970;48.774;9.280;2024-01-30T12:49:44;7.00;;;4.93;;
56102;SDS011;41970;48.774;9.280;2024-01-30T12:52:10;7.80;;;5.67;;
56102;SDS011;41970;48.774;9.280;2024-01-30T12:54:37;6.60;;;5.90;;
56102;SDS011;41970;48.774;9.280;2024-01-30T12:57:03;7.17;;;5.40;;
56102;SDS011;41970;48.774;9.280;2024-01-30T12:59:30;11.37;;;7.03;;
56102;SDS011;41970;48.774;9.280;2024-01-30T13:01:56;7.10;;;5.83;;
56102;SDS011;41970;48.774;9.280;2024-01-30T13:04:22;6.20;;;5.07;;
56102;SDS011;41970;48.774;9.280;2024-01-30T13:06:48;5.83;;;4.97;;
56102;SDS011;41970;48.774;9.280;2024-01-30T13:09:14;5.90;;;4.37;;
56102;SDS011;41970;48.774;9.280;2024-01-30T13:11:40;7.00;;;6.30;;
56102;SDS011;41970;48.774;9.280;2024-01-30T13:14:06;9.90;;;6.03;;
56102;SDS011;41970;48.774;9.280;2024-01-30T13:16:32;10.00;;;6.90;;
56102;SDS011;41970;48.774;9.280;2024-01-30T13:18:58;8.37;;;7.30;;
56102;SDS011;41970;48.774;9.280;2024-01-30T13:21:26;8.60;;;7.80;;
56102;SDS011;41970;48.774;9.280;2024-01-30T13:23:51;9.13;;;6.70;;
56102;SDS011;41970;48.774;9.280;2024-01-30T13:26:19;12.80;;;7.57;;
56102;SDS011;41970;48.774;9.280;2024-01-30T13:28:46;13.00;;;7.60;;
56102;SDS011;41970;48.774;9.280;2024-01-30T13:31:15;11.10;;;7.70;;
56102;SDS011;41970;48.774;9.280;2024-01-30T13:33:41;10.23;;;7.10;;
56102;SDS011;41970;48.774;9.280;2024-01-30T13:36:10;10.80;;;7.97;;
56102;SDS011;41970;48.774;9.280;2024-01-30T13:38:37;10.70;;;7.47;;
56102;SDS011;41970;48.774;9.280;2024-01-30T13:41:04;8.60;;;6.43;;
56102;SDS011;41970;48.774;9.280;2024-01-30T13:43:30;10.40;;;7.93;;
56102;SDS011;41970;48.774;9.280;2024-01-30T13:45:56;9.83;;;8.57;;
56102;SDS011;41970;48.774;9.280;2024-01-30T13:48:22;10.73;;;9.10;;
56102;SDS011;41970;48.774;9.280;2024-01-30T13:50:47;11.70;;;9.63;;
56102;SDS011;41970;48.774;9.280;2024-01-30T13:53:13;12.43;;;11.13;;
56102;SDS011;41970;48.774;9.280;2024-01-30T13:55:39;12.13;;;10.10;;
56102;SDS011;41970;48.774;9.280;2024-01-30T13:58:05;13.93;;;9.77;;
56102;SDS011;41970;48.774;9.280;2024-01-30T14:00:32;15.33;;;10.27;;
56102;SDS011;41970;48.774;9.280;2024-01-30T14:02:58;12.33;;;10.20;;
56102;SDS011;41970;48.774;9.280;2024-01-30T14:05:25;14.30;;;10.40;;
56102;SDS011;41970;48.774;9.280;2024-01-30T14:07:53;13.30;;;8.00;;
56102;SDS011;41970;48.774;9.280;2024-01-30T14:10:19;8.10;;;7.30;;
56102;SDS011;41970;48.774;9.280;2024-01-30T14:12:45;9.93;;;7.03;;
56102;SDS011;41970;48.774;9.280;2024-01-30T14:15:13;9.90;;;8.90;;
56102;SDS011;41970;48.774;9.280;2024-01-30T14:17:48;8.30;;;7.00;;
56102;SDS011;41970;48.774;9.280;2024-01-30T14:20:15;11.80;;;8.00;;
56102;SDS011;41970;48.774;9.280;2024-01-30T14:22:44;10.23;;;7.37;;
56102;SDS011;41970;48.774;9.280;2024-01-30T14:25:09;9.50;;;7.83;;
56102;SDS011;41970;48.774;9.280;2024-01-30T14:27:35;7.63;;;6.97;;
56102;SDS011;41970;48.774;9.280;2024-01-30T14:30:01;9.57;;;7.00;;
56102;SDS011;41970;48.774;9.280;2024-01-30T14:32:31;9.67;;;6.20;;
56102;SDS011;41970;48.774;9.280;2024-01-30T14:34:56;8.17;;;7.27;;
56102;SDS011;41970;48.774;9.280;2024-01-30T14:37:22;10.67;;;8.10;;